sensor_id;sensor_type;location;lat;lon;timestamp;pressure;altitude;pressure_sealevel;temperature;humidity
10476;BME280;26166;48.264;11.436;2022-10-12T00:00:25;96783.41;;;20.07;56.35
10476;BME280;26166;48.264;11.436;2022-10-12T00:22:38;96761.44;;;20.05;56.60
10476;BME280;26166;48.264;11.436;2022-10-12T00:30:10;96774.78;;;20.05;56.66
10476;BME280;26166;48.264;11.436;2022-10-12T00:36:56;96764.13;;;20.05;56.42
10476;BME280;26166;48.264;11.436;2022-10-12T00:44:37;96759.81;;;20.04;56.50
10476;BME280;26166;48.264;11.436;2022-10-12T01:18:08;96776.84;;;20.03;56.55
10476;BME280;26166;48.264;11.436;2022-10-12T01:21:51;96772.56;;;20.02;56.46
10476;BME280;26166;48.264;11.436;2022-10-12T01:37:11;96770.91;;;20.01;56.57
10476;BME280;26166;48.264;11.436;2022-10-12T01:41:10;96768.03;;;20.02;56.63
10476;BME280;26166;48.264;11.436;2022-10-12T01:44:41;96768.25;;;20.01;56.42
10476;BME280;26166;48.264;11.436;2022-10-12T02:03:09;96778.91;;;20.01;56.55
10476;BME280;26166;48.264;11.436;2022-10-12T02:07:03;96777.28;;;20.00;56.41
10476;BME280;26166;48.264;11.436;2022-10-12T02:10:48;96773.56;;;20.01;56.50
10476;BME280;26166;48.264;11.436;2022-10-12T02:14:44;96771.94;;;20.00;56.70
10476;BME280;26166;48.264;11.436;2022-10-12T02:18:26;96777.28;;;20.00;56.55
10476;BME280;26166;48.264;11.436;2022-10-12T02:25:59;96773.56;;;20.01;56.47
10476;BME280;26166;48.264;11.436;2022-10-12T02:48:28;96755.53;;;20.03;56.50
10476;BME280;26166;48.264;11.436;2022-10-12T03:03:37;96742.59;;;20.06;56.39
10476;BME280;26166;48.264;11.436;2022-10-12T03:07:22;96736.44;;;20.06;56.22
10476;BME280;26166;48.264;11.436;2022-10-12T03:10:23;96738.06;;;20.07;56.15
10476;BME280;26166;48.264;11.436;2022-10-12T03:13:23;96738.88;;;20.07;56.26
10476;BME280;26166;48.264;11.436;2022-10-12T03:16:23;96731.69;;;20.08;56.13
10476;BME280;26166;48.264;11.436;2022-10-12T03:19:23;96742.38;;;20.08;56.13
10476;BME280;26166;48.264;11.436;2022-10-12T03:22:23;96744.00;;;20.09;56.27
10476;BME280;26166;48.264;11.436;2022-10-12T03:25:33;96742.38;;;20.08;56.18
10476;BME280;26166;48.264;11.436;2022-10-12T03:28:53;96750.13;;;20.09;56.32
10476;BME280;26166;48.264;11.436;2022-10-12T03:31:53;96753.03;;;20.08;56.19
10476;BME280;26166;48.264;11.436;2022-10-12T03:34:53;96756.31;;;20.10;56.24
10476;BME280;26166;48.264;11.436;2022-10-12T03:37:53;96752.00;;;20.09;56.27
10476;BME280;26166;48.264;11.436;2022-10-12T03:40:54;96760.00;;;20.09;56.11
10476;BME280;26166;48.264;11.436;2022-10-12T03:43:54;96752.00;;;20.09;56.20
10476;BME280;26166;48.264;11.436;2022-10-12T03:46:54;96756.31;;;20.10;56.20
10476;BME280;26166;48.264;11.436;2022-10-12T03:49:54;96750.97;;;20.10;56.18
10476;BME280;26166;48.264;11.436;2022-10-12T03:52:55;96756.31;;;20.10;56.08
10476;BME280;26166;48.264;11.436;2022-10-12T03:55:55;96745.84;;;20.08;56.15
10476;BME280;26166;48.264;11.436;2022-10-12T03:58:55;96751.81;;;20.10;56.10
10476;BME280;26166;48.264;11.436;2022-10-12T04:01:55;96752.81;;;20.09;56.14
10476;BME280;26166;48.264;11.436;2022-10-12T04:04:55;96754.66;;;20.09;56.15
10476;BME280;26166;48.264;11.436;2022-10-12T04:07:56;96755.47;;;20.09;56.36
10476;BME280;26166;48.264;11.436;2022-10-12T04:10:56;96756.31;;;20.10;56.17
10476;BME280;26166;48.264;11.436;2022-10-12T04:13:57;96759.00;;;20.10;56.27
10476;BME280;26166;48.264;11.436;2022-10-12T04:16:57;96753.84;;;20.08;56.18
10476;BME280;26166;48.264;11.436;2022-10-12T04:19:57;96754.06;;;20.07;56.44
10476;BME280;26166;48.264;11.436;2022-10-12T04:22:57;96755.69;;;20.08;56.34
10476;BME280;26166;48.264;11.436;2022-10-12T04:25:57;96751.41;;;20.07;56.15
10476;BME280;26166;48.264;11.436;2022-10-12T04:28:58;96748.50;;;20.08;56.18
10476;BME280;26166;48.264;11.436;2022-10-12T04:31:58;96742.38;;;20.08;56.18
10476;BME280;26166;48.264;11.436;2022-10-12T04:34:58;96752.22;;;20.07;56.16
10476;BME280;26166;48.264;11.436;2022-10-12T04:37:58;96760.00;;;20.09;56.29
10476;BME280;26166;48.264;11.436;2022-10-12T04:40:58;96755.47;;;20.09;56.34
10476;BME280;26166;48.264;11.436;2022-10-12T04:43:59;96760.00;;;20.09;56.14
10476;BME280;26166;48.264;11.436;2022-10-12T04:46:59;96760.00;;;20.09;56.09
10476;BME280;26166;48.264;11.436;2022-10-12T04:50:00;96754.66;;;20.09;56.24
10476;BME280;26166;48.264;11.436;2022-10-12T04:53:00;96760.00;;;20.09;56.30
10476;BME280;26166;48.264;11.436;2022-10-12T04:56:04;96761.84;;;20.08;56.38
10476;BME280;26166;48.264;11.436;2022-10-12T04:59:04;96764.50;;;20.08;56.38
10476;BME280;26166;48.264;11.436;2022-10-12T05:02:04;96758.38;;;20.08;56.23
10476;BME280;26166;48.264;11.436;2022-10-12T05:05:05;96754.88;;;20.07;56.23
10476;BME280;26166;48.264;11.436;2022-10-12T05:08:05;96759.41;;;20.07;56.20
10476;BME280;26166;48.264;11.436;2022-10-12T05:11:05;96754.88;;;20.07;56.26
10476;BME280;26166;48.264;11.436;2022-10-12T05:14:05;96756.75;;;20.07;56.27
10476;BME280;26166;48.264;11.436;2022-10-12T05:17:05;96762.06;;;20.07;56.31
10476;BME280;26166;48.264;11.436;2022-10-12T05:20:06;96767.19;;;20.08;56.38
10476;BME280;26166;48.264;11.436;2022-10-12T05:23:06;96762.88;;;20.07;56.31
10476;BME280;26166;48.264;11.436;2022-10-12T05:26:06;96774.38;;;20.08;56.28
10476;BME280;26166;48.264;11.436;2022-10-12T05:29:07;96774.38;;;20.08;56.43
10476;BME280;26166;48.264;11.436;2022-10-12T05:32:07;96779.69;;;20.08;56.34
10476;BME280;26166;48.264;11.436;2022-10-12T05:35:08;96779.69;;;20.08;56.36
10476;BME280;26166;48.264;11.436;2022-10-12T05:38:08;96780.75;;;20.07;56.30
10476;BME280;26166;48.264;11.436;2022-10-12T05:41:08;96782.38;;;20.08;56.32
10476;BME280;26166;48.264;11.436;2022-10-12T05:44:09;96774.38;;;20.08;56.24
10476;BME280;26166;48.264;11.436;2022-10-12T05:47:09;96779.69;;;20.08;56.33
10476;BME280;26166;48.264;11.436;2022-10-12T05:50:09;96774.38;;;20.08;56.29
10476;BME280;26166;48.264;11.436;2022-10-12T05:53:09;96773.56;;;20.07;56.27
10476;BME280;26166;48.264;11.436;2022-10-12T05:56:09;96782.38;;;20.08;56.44
10476;BME280;26166;48.264;11.436;2022-10-12T05:59:10;96794.66;;;20.09;56.33
10476;BME280;26166;48.264;11.436;2022-10-12T06:02:11;96789.31;;;20.09;56.22
10476;BME280;26166;48.264;11.436;2022-10-12T06:05:12;96795.47;;;20.09;56.32
10476;BME280;26166;48.264;11.436;2022-10-12T06:08:12;96789.31;;;20.09;56.33
10476;BME280;26166;48.264;11.436;2022-10-12T06:11:13;96797.31;;;20.09;56.24
10476;BME280;26166;48.264;11.436;2022-10-12T06:14:13;96806.16;;;20.09;56.33
10476;BME280;26166;48.264;11.436;2022-10-12T06:17:14;96797.31;;;20.09;56.49
10476;BME280;26166;48.264;11.436;2022-10-12T06:20:14;96799.00;;;20.10;56.29
10476;BME280;26166;48.264;11.436;2022-10-12T06:23:14;96800.63;;;20.11;56.36
10476;BME280;26166;48.264;11.436;2022-10-12T06:26:15;96797.94;;;20.11;56.17
10476;BME280;26166;48.264;11.436;2022-10-12T06:29:15;96809.66;;;20.10;56.26
10476;BME280;26166;48.264;11.436;2022-10-12T06:32:16;96796.31;;;20.10;56.38
10476;BME280;26166;48.264;11.436;2022-10-12T06:35:16;96803.28;;;20.11;56.28
10476;BME280;26166;48.264;11.436;2022-10-12T06:38:16;96811.28;;;20.11;56.28
10476;BME280;26166;48.264;11.436;2022-10-12T06:41:17;96800.63;;;20.11;56.36
10476;BME280;26166;48.264;11.436;2022-10-12T06:44:17;96801.66;;;20.10;56.28
10476;BME280;26166;48.264;11.436;2022-10-12T06:47:21;96807.00;;;20.10;56.50
10476;BME280;26166;48.264;11.436;2022-10-12T06:50:21;96810.47;;;20.10;56.22
10476;BME280;26166;48.264;11.436;2022-10-12T06:53:21;96807.81;;;20.10;56.30
10476;BME280;26166;48.264;11.436;2022-10-12T06:56:22;96809.66;;;20.10;56.33
10476;BME280;26166;48.264;11.436;2022-10-12T06:59:22;96799.00;;;20.10;56.23
10476;BME280;26166;48.264;11.436;2022-10-12T07:02:22;96805.94;;;20.11;56.26
10476;BME280;26166;48.264;11.436;2022-10-12T07:05:23;96815.00;;;20.10;56.28
10476;BME280;26166;48.264;11.436;2022-10-12T07:08:23;96808.63;;;20.11;56.40
10476;BME280;26166;48.264;11.436;2022-10-12T07:11:23;96816.63;;;20.11;56.23
10476;BME280;26166;48.264;11.436;2022-10-12T07:14:23;96822.75;;;20.11;56.18
10476;BME280;26166;48.264;11.436;2022-10-12T07:17:23;96816.63;;;20.11;56.20
10476;BME280;26166;48.264;11.436;2022-10-12T07:20:24;96821.13;;;20.10;56.30
10476;BME280;26166;48.264;11.436;2022-10-12T07:23:24;96820.31;;;20.10;56.42
10476;BME280;26166;48.264;11.436;2022-10-12T07:26:24;96821.94;;;20.11;56.38
10476;BME280;26166;48.264;11.436;2022-10-12T07:29:25;96825.66;;;20.10;56.44
10476;BME280;26166;48.264;11.436;2022-10-12T07:32:25;96827.28;;;20.11;56.31
10476;BME280;26166;48.264;11.436;2022-10-12T07:35:25;96827.28;;;20.11;56.42
10476;BME280;26166;48.264;11.436;2022-10-12T07:38:26;96836.31;;;20.10;56.42
10476;BME280;26166;48.264;11.436;2022-10-12T07:41:26;96831.00;;;20.10;56.32
10476;BME280;26166;48.264;11.436;2022-10-12T07:44:26;96841.66;;;20.10;56.32
10476;BME280;26166;48.264;11.436;2022-10-12T07:47:27;96831.81;;;20.10;56.50
10476;BME280;26166;48.264;11.436;2022-10-12T07:50:27;96841.66;;;20.10;56.26
10476;BME280;26166;48.264;11.436;2022-10-12T07:53:27;96844.91;;;20.12;56.22
10476;BME280;26166;48.264;11.436;2022-10-12T07:56:27;96847.00;;;20.10;56.27
10476;BME280;26166;48.264;11.436;2022-10-12T07:59:27;96850.25;;;20.12;56.37
10476;BME280;26166;48.264;11.436;2022-10-12T08:02:28;96853.72;;;20.12;56.19
10476;BME280;26166;48.264;11.436;2022-10-12T08:05:28;96839.59;;;20.12;56.42
10476;BME280;26166;48.264;11.436;2022-10-12T08:08:28;96844.91;;;20.12;56.25
10476;BME280;26166;48.264;11.436;2022-10-12T08:11:28;96855.59;;;20.12;56.26
10476;BME280;26166;48.264;11.436;2022-10-12T08:14:29;96849.22;;;20.13;56.47
10476;BME280;26166;48.264;11.436;2022-10-12T08:17:29;96844.91;;;20.12;56.30
10476;BME280;26166;48.264;11.436;2022-10-12T08:20:29;96848.41;;;20.12;56.27
10476;BME280;26166;48.264;11.436;2022-10-12T08:23:29;96850.25;;;20.12;56.32
10476;BME280;26166;48.264;11.436;2022-10-12T08:26:29;96851.06;;;20.12;56.27
10476;BME280;26166;48.264;11.436;2022-10-12T08:29:30;96850.25;;;20.12;56.31
10476;BME280;26166;48.264;11.436;2022-10-12T08:32:30;96849.44;;;20.11;56.44
10476;BME280;26166;48.264;11.436;2022-10-12T08:35:31;96843.28;;;20.11;56.32
10476;BME280;26166;48.264;11.436;2022-10-12T08:38:31;96841.44;;;20.11;56.28
10476;BME280;26166;48.264;11.436;2022-10-12T08:44:38;96844.09;;;20.11;56.44
10476;BME280;26166;48.264;11.436;2022-10-12T08:47:43;96850.25;;;20.12;56.22
10476;BME280;26166;48.264;11.436;2022-10-12T08:50:56;96854.53;;;20.13;56.40
10476;BME280;26166;48.264;11.436;2022-10-12T08:54:02;96850.25;;;20.12;56.40
10476;BME280;26166;48.264;11.436;2022-10-12T08:57:04;96851.88;;;20.13;56.26
10476;BME280;26166;48.264;11.436;2022-10-12T09:00:13;96851.06;;;20.12;56.45
10476;BME280;26166;48.264;11.436;2022-10-12T09:12:48;96862.53;;;20.13;56.18
10476;BME280;26166;48.264;11.436;2022-10-12T09:15:56;96858.25;;;20.12;56.30
10476;BME280;26166;48.264;11.436;2022-10-12T09:18:58;96861.72;;;20.12;56.29
10476;BME280;26166;48.264;11.436;2022-10-12T09:22:01;96859.28;;;20.11;56.21
10476;BME280;26166;48.264;11.436;2022-10-12T09:25:02;96859.28;;;20.11;56.32
10476;BME280;26166;48.264;11.436;2022-10-12T09:28:12;96864.63;;;20.11;56.45
10476;BME280;26166;48.264;11.436;2022-10-12T09:31:36;96865.44;;;20.11;56.29
10476;BME280;26166;48.264;11.436;2022-10-12T09:34:41;96864.63;;;20.11;56.42
10476;BME280;26166;48.264;11.436;2022-10-12T09:37:41;96861.72;;;20.12;56.20
10476;BME280;26166;48.264;11.436;2022-10-12T09:40:43;96862.78;;;20.11;56.26
10476;BME280;26166;48.264;11.436;2022-10-12T09:43:44;96859.06;;;20.12;56.41
10476;BME280;26166;48.264;11.436;2022-10-12T09:46:48;96859.88;;;20.13;56.21
10476;BME280;26166;48.264;11.436;2022-10-12T09:49:50;96858.25;;;20.12;56.35
10476;BME280;26166;48.264;11.436;2022-10-12T09:52:51;96862.53;;;20.13;56.27
10476;BME280;26166;48.264;11.436;2022-10-12T09:55:55;96862.53;;;20.13;56.39
10476;BME280;26166;48.264;11.436;2022-10-12T09:58:57;96860.50;;;20.15;56.31
10476;BME280;26166;48.264;11.436;2022-10-12T10:05:14;96858.84;;;20.14;56.30
10476;BME280;26166;48.264;11.436;2022-10-12T10:08:22;96857.22;;;20.13;56.27
10476;BME280;26166;48.264;11.436;2022-10-12T10:11:22;96853.50;;;20.14;56.36
10476;BME280;26166;48.264;11.436;2022-10-12T10:14:29;96859.06;;;20.12;56.39
10476;BME280;26166;48.264;11.436;2022-10-12T10:17:31;96862.53;;;20.13;56.31
10476;BME280;26166;48.264;11.436;2022-10-12T10:20:38;96857.22;;;20.13;56.40
10476;BME280;26166;48.264;11.436;2022-10-12T10:27:03;96858.03;;;20.13;56.30
10476;BME280;26166;48.264;11.436;2022-10-12T10:33:16;96855.34;;;20.13;56.34
10476;BME280;26166;48.264;11.436;2022-10-12T10:36:21;96856.19;;;20.14;56.32
10476;BME280;26166;48.264;11.436;2022-10-12T10:39:36;96849.22;;;20.13;56.38
10476;BME280;26166;48.264;11.436;2022-10-12T10:42:43;96853.50;;;20.14;56.28
10476;BME280;26166;48.264;11.436;2022-10-12T10:45:55;96853.50;;;20.14;56.29
10476;BME280;26166;48.264;11.436;2022-10-12T10:48:59;96848.19;;;20.14;56.43
10476;BME280;26166;48.264;11.436;2022-10-12T10:52:27;96852.69;;;20.13;56.32
10476;BME280;26166;48.264;11.436;2022-10-12T10:55:30;96845.72;;;20.12;56.35
10476;BME280;26166;48.264;11.436;2022-10-12T10:58:38;96842.25;;;20.12;56.24
10476;BME280;26166;48.264;11.436;2022-10-12T11:01:47;96838.75;;;20.11;56.34
10476;BME280;26166;48.264;11.436;2022-10-12T11:04:50;96843.88;;;20.13;56.31
10476;BME280;26166;48.264;11.436;2022-10-12T11:07:53;96842.25;;;20.12;56.24
10476;BME280;26166;48.264;11.436;2022-10-12T11:10:58;96835.88;;;20.13;56.58
10476;BME280;26166;48.264;11.436;2022-10-12T11:14:01;96835.88;;;20.13;56.21
10476;BME280;26166;48.264;11.436;2022-10-12T11:17:05;96833.22;;;20.13;56.27
10476;BME280;26166;48.264;11.436;2022-10-12T11:20:21;96833.22;;;20.13;56.25
10476;BME280;26166;48.264;11.436;2022-10-12T11:23:28;96827.69;;;20.14;56.15
10476;BME280;26166;48.264;11.436;2022-10-12T11:26:33;96826.84;;;20.14;56.23
10476;BME280;26166;48.264;11.436;2022-10-12T11:29:34;96823.16;;;20.15;56.22
10476;BME280;26166;48.264;11.436;2022-10-12T11:32:40;96817.00;;;20.14;56.11
10476;BME280;26166;48.264;11.436;2022-10-12T11:35:43;96817.00;;;20.14;56.20
10476;BME280;26166;48.264;11.436;2022-10-12T11:38:48;96818.84;;;20.14;56.15
10476;BME280;26166;48.264;11.436;2022-10-12T11:41:51;96808.16;;;20.14;56.15
10476;BME280;26166;48.264;11.436;2022-10-12T11:44:51;96817.00;;;20.14;56.39
10476;BME280;26166;48.264;11.436;2022-10-12T11:47:53;96808.16;;;20.14;56.28
10476;BME280;26166;48.264;11.436;2022-10-12T11:50:56;96803.88;;;20.13;56.20
10476;BME280;26166;48.264;11.436;2022-10-12T11:54:06;96800.16;;;20.14;56.12
10476;BME280;26166;48.264;11.436;2022-10-12T11:57:12;96798.53;;;20.13;56.24
10476;BME280;26166;48.264;11.436;2022-10-12T12:00:24;96794.84;;;20.14;56.15
10476;BME280;26166;48.264;11.436;2022-10-12T12:03:54;96794.84;;;20.14;56.08
10476;BME280;26166;48.264;11.436;2022-10-12T12:07:02;96797.50;;;20.14;56.18
10476;BME280;26166;48.264;11.436;2022-10-12T12:13:22;96799.16;;;20.15;56.28
10476;BME280;26166;48.264;11.436;2022-10-12T12:16:27;96791.97;;;20.15;56.10
10476;BME280;26166;48.264;11.436;2022-10-12T12:19:36;96785.81;;;20.15;56.18
10476;BME280;26166;48.264;11.436;2022-10-12T12:22:46;96793.81;;;20.15;56.35
10476;BME280;26166;48.264;11.436;2022-10-12T12:25:54;96786.63;;;20.15;56.29
10476;BME280;26166;48.264;11.436;2022-10-12T12:29:07;96785.81;;;20.15;56.32
10476;BME280;26166;48.264;11.436;2022-10-12T12:32:08;96790.34;;;20.14;56.34
10476;BME280;26166;48.264;11.436;2022-10-12T12:35:28;96791.34;;;20.13;56.30
10476;BME280;26166;48.264;11.436;2022-10-12T12:38:30;96797.50;;;20.14;56.17
10476;BME280;26166;48.264;11.436;2022-10-12T12:44:45;96792.38;;;20.12;56.19
10476;BME280;26166;48.264;11.436;2022-10-12T12:47:45;96787.88;;;20.13;56.19
10476;BME280;26166;48.264;11.436;2022-10-12T12:50:45;96793.22;;;20.13;56.13
10476;BME280;26166;48.264;11.436;2022-10-12T12:53:48;96786.84;;;20.14;56.35
10476;BME280;26166;48.264;11.436;2022-10-12T12:57:12;96789.50;;;20.14;56.21
10476;BME280;26166;48.264;11.436;2022-10-12T13:00:19;96783.34;;;20.13;56.21
10476;BME280;26166;48.264;11.436;2022-10-12T13:15:48;96781.31;;;20.15;56.10
10476;BME280;26166;48.264;11.436;2022-10-12T13:18:57;96779.44;;;20.16;56.30
10476;BME280;26166;48.264;11.436;2022-10-12T13:22:01;96773.31;;;20.15;56.18
10476;BME280;26166;48.264;11.436;2022-10-12T13:25:03;96776.78;;;20.16;56.24
10476;BME280;26166;48.264;11.436;2022-10-12T13:28:06;96780.50;;;20.15;56.31
10476;BME280;26166;48.264;11.436;2022-10-12T13:31:25;96781.31;;;20.15;56.21
10476;BME280;26166;48.264;11.436;2022-10-12T13:34:28;96777.00;;;20.14;56.22
10476;BME280;26166;48.264;11.436;2022-10-12T13:37:31;96776.78;;;20.16;56.13
10476;BME280;26166;48.264;11.436;2022-10-12T13:40:36;96777.00;;;20.14;56.13
10476;BME280;26166;48.264;11.436;2022-10-12T13:46:44;96780.50;;;20.15;56.11
10476;BME280;26166;48.264;11.436;2022-10-12T13:49:45;96779.44;;;20.16;56.35
10476;BME280;26166;48.264;11.436;2022-10-12T13:52:51;96774.94;;;20.16;56.20
10476;BME280;26166;48.264;11.436;2022-10-12T13:56:14;96772.25;;;20.16;56.20
10476;BME280;26166;48.264;11.436;2022-10-12T13:59:15;96766.13;;;20.16;56.08
10476;BME280;26166;48.264;11.436;2022-10-12T14:02:21;96760.78;;;20.16;56.07
10476;BME280;26166;48.264;11.436;2022-10-12T14:05:23;96748.50;;;20.15;56.25
10476;BME280;26166;48.264;11.436;2022-10-12T14:08:24;96755.44;;;20.16;56.34
10476;BME280;26166;48.264;11.436;2022-10-12T14:11:25;96753.81;;;20.15;56.31
10476;BME280;26166;48.264;11.436;2022-10-12T14:14:33;96748.50;;;20.15;56.07
10476;BME280;26166;48.264;11.436;2022-10-12T14:17:40;96747.69;;;20.14;56.11
10476;BME280;26166;48.264;11.436;2022-10-12T14:20:40;96747.69;;;20.14;56.23
10476;BME280;26166;48.264;11.436;2022-10-12T14:23:44;96750.34;;;20.14;56.15
10476;BME280;26166;48.264;11.436;2022-10-12T14:26:51;96750.34;;;20.14;56.16
10476;BME280;26166;48.264;11.436;2022-10-12T14:29:54;96753.81;;;20.15;56.28
10476;BME280;26166;48.264;11.436;2022-10-12T14:33:07;96749.50;;;20.14;56.12
10476;BME280;26166;48.264;11.436;2022-10-12T14:36:21;96752.16;;;20.14;56.14
10476;BME280;26166;48.264;11.436;2022-10-12T14:39:21;96755.69;;;20.14;56.23
10476;BME280;26166;48.264;11.436;2022-10-12T14:42:26;96748.50;;;20.15;56.20
10476;BME280;26166;48.264;11.436;2022-10-12T14:45:26;96746.81;;;20.14;56.34
10476;BME280;26166;48.264;11.436;2022-10-12T14:48:26;96750.13;;;20.16;56.29
10476;BME280;26166;48.264;11.436;2022-10-12T14:51:27;96742.34;;;20.14;56.25
10476;BME280;26166;48.264;11.436;2022-10-12T14:54:27;96744.16;;;20.14;56.11
10476;BME280;26166;48.264;11.436;2022-10-12T14:57:28;96738.81;;;20.14;56.15
10476;BME280;26166;48.264;11.436;2022-10-12T15:00:30;96737.81;;;20.15;56.34
10476;BME280;26166;48.264;11.436;2022-10-12T15:03:30;96732.47;;;20.15;56.24
10476;BME280;26166;48.264;11.436;2022-10-12T15:06:30;96729.00;;;20.14;56.15
10476;BME280;26166;48.264;11.436;2022-10-12T15:09:31;96735.97;;;20.15;56.26
10476;BME280;26166;48.264;11.436;2022-10-12T15:12:31;96731.44;;;20.16;56.14
10476;BME280;26166;48.264;11.436;2022-10-12T15:15:38;96739.44;;;20.16;56.12
10476;BME280;26166;48.264;11.436;2022-10-12T15:18:39;96742.13;;;20.16;56.15
10476;BME280;26166;48.264;11.436;2022-10-12T15:21:39;96746.63;;;20.15;56.20
10476;BME280;26166;48.264;11.436;2022-10-12T15:24:40;96740.25;;;20.16;56.23
10476;BME280;26166;48.264;11.436;2022-10-12T15:27:40;96736.78;;;20.16;56.18
10476;BME280;26166;48.264;11.436;2022-10-12T15:30:40;96744.78;;;20.16;56.20
10476;BME280;26166;48.264;11.436;2022-10-12T15:33:40;96736.78;;;20.16;56.13
10476;BME280;26166;48.264;11.436;2022-10-12T15:36:41;96745.59;;;20.16;56.16
10476;BME280;26166;48.264;11.436;2022-10-12T15:39:42;96741.06;;;20.17;56.11
10476;BME280;26166;48.264;11.436;2022-10-12T15:42:42;96744.78;;;20.16;56.36
10476;BME280;26166;48.264;11.436;2022-10-12T15:45:42;96740.50;;;20.15;56.13
10476;BME280;26166;48.264;11.436;2022-10-12T15:48:43;96739.44;;;20.16;56.13
10476;BME280;26166;48.264;11.436;2022-10-12T15:51:47;96736.78;;;20.16;56.10
10476;BME280;26166;48.264;11.436;2022-10-12T15:54:47;96743.16;;;20.15;56.14
10476;BME280;26166;48.264;11.436;2022-10-12T15:57:49;96734.13;;;20.16;56.22
10476;BME280;26166;48.264;11.436;2022-10-12T16:00:50;96729.59;;;20.16;56.26
10476;BME280;26166;48.264;11.436;2022-10-12T16:03:50;96741.06;;;20.17;56.24
10476;BME280;26166;48.264;11.436;2022-10-12T16:06:50;96728.78;;;20.16;56.14
10476;BME280;26166;48.264;11.436;2022-10-12T16:09:51;96731.44;;;20.16;56.21
10476;BME280;26166;48.264;11.436;2022-10-12T16:12:51;96736.78;;;20.16;56.24
10476;BME280;26166;48.264;11.436;2022-10-12T16:15:52;96728.78;;;20.16;56.12
10476;BME280;26166;48.264;11.436;2022-10-12T16:18:52;96727.97;;;20.15;56.11
10476;BME280;26166;48.264;11.436;2022-10-12T16:21:52;96724.47;;;20.15;56.08
10476;BME280;26166;48.264;11.436;2022-10-12T16:24:53;96729.59;;;20.16;56.03
10476;BME280;26166;48.264;11.436;2022-10-12T16:27:54;96734.94;;;20.16;56.15
10476;BME280;26166;48.264;11.436;2022-10-12T16:30:55;96733.06;;;20.17;56.16
10476;BME280;26166;48.264;11.436;2022-10-12T16:33:55;96741.06;;;20.17;56.20
10476;BME280;26166;48.264;11.436;2022-10-12T16:36:56;96735.75;;;20.17;56.26
10476;BME280;26166;48.264;11.436;2022-10-12T16:39:56;96740.03;;;20.18;56.12
10476;BME280;26166;48.264;11.436;2022-10-12T16:42:56;96738.41;;;20.17;56.17
10476;BME280;26166;48.264;11.436;2022-10-12T16:45:56;96745.38;;;20.18;56.04
10476;BME280;26166;48.264;11.436;2022-10-12T16:48:57;96744.56;;;20.17;56.19
10476;BME280;26166;48.264;11.436;2022-10-12T16:51:57;96742.69;;;20.18;56.00
10476;BME280;26166;48.264;11.436;2022-10-12T16:54:57;96737.38;;;20.18;56.03
10476;BME280;26166;48.264;11.436;2022-10-12T16:57:57;96741.06;;;20.17;56.05
10476;BME280;26166;48.264;11.436;2022-10-12T17:01:05;96746.19;;;20.19;56.09
10476;BME280;26166;48.264;11.436;2022-10-12T17:04:05;96745.38;;;20.18;56.18
10476;BME280;26166;48.264;11.436;2022-10-12T17:07:05;96742.69;;;20.18;56.14
10476;BME280;26166;48.264;11.436;2022-10-12T17:10:06;96742.69;;;20.18;56.20
10476;BME280;26166;48.264;11.436;2022-10-12T17:13:06;96739.22;;;20.17;56.21
10476;BME280;26166;48.264;11.436;2022-10-12T17:16:07;96748.03;;;20.18;56.23
10476;BME280;26166;48.264;11.436;2022-10-12T17:22:26;96752.38;;;20.19;56.13
10476;BME280;26166;48.264;11.436;2022-10-12T17:25:27;96745.38;;;20.18;56.18
10476;BME280;26166;48.264;11.436;2022-10-12T17:28:27;96753.38;;;20.18;56.11
10476;BME280;26166;48.264;11.436;2022-10-12T17:31:30;96751.75;;;20.17;56.19
10476;BME280;26166;48.264;11.436;2022-10-12T17:34:31;96753.38;;;20.18;56.30
10476;BME280;26166;48.264;11.436;2022-10-12T17:37:31;96747.22;;;20.17;56.20
10476;BME280;26166;48.264;11.436;2022-10-12T17:40:32;96757.06;;;20.17;56.26
10476;BME280;26166;48.264;11.436;2022-10-12T17:43:32;96754.41;;;20.17;56.13
10476;BME280;26166;48.264;11.436;2022-10-12T17:46:32;96759.75;;;20.17;56.23
10476;BME280;26166;48.264;11.436;2022-10-12T17:49:32;96762.41;;;20.17;56.19
10476;BME280;26166;48.264;11.436;2022-10-12T17:52:35;96757.06;;;20.17;56.15
10476;BME280;26166;48.264;11.436;2022-10-12T17:55:36;96750.13;;;20.16;56.23
10476;BME280;26166;48.264;11.436;2022-10-12T17:58:36;96760.78;;;20.16;56.14
10476;BME280;26166;48.264;11.436;2022-10-12T18:01:36;96755.44;;;20.16;56.05
10476;BME280;26166;48.264;11.436;2022-10-12T18:04:37;96761.59;;;20.16;56.26
10476;BME280;26166;48.264;11.436;2022-10-12T18:07:38;96757.88;;;20.17;56.38
10476;BME280;26166;48.264;11.436;2022-10-12T18:10:40;96757.06;;;20.17;56.13
10476;BME280;26166;48.264;11.436;2022-10-12T18:13:43;96762.41;;;20.17;56.13
10476;BME280;26166;48.264;11.436;2022-10-12T18:16:43;96765.06;;;20.17;56.22
10476;BME280;26166;48.264;11.436;2022-10-12T18:19:43;96765.88;;;20.17;56.11
10476;BME280;26166;48.264;11.436;2022-10-12T18:22:46;96770.19;;;20.19;56.31
10476;BME280;26166;48.264;11.436;2022-10-12T18:25:46;96762.19;;;20.19;55.99
10476;BME280;26166;48.264;11.436;2022-10-12T18:28:50;96764.03;;;20.18;56.10
10476;BME280;26166;48.264;11.436;2022-10-12T18:31:50;96758.72;;;20.18;56.22
10476;BME280;26166;48.264;11.436;2022-10-12T18:34:52;96764.03;;;20.18;56.18
10476;BME280;26166;48.264;11.436;2022-10-12T18:37:52;96759.53;;;20.19;56.06
10476;BME280;26166;48.264;11.436;2022-10-12T18:40:52;96756.03;;;20.18;56.08
10476;BME280;26166;48.264;11.436;2022-10-12T18:43:54;96753.38;;;20.18;56.12
10476;BME280;26166;48.264;11.436;2022-10-12T18:46:56;96750.69;;;20.18;56.06
10476;BME280;26166;48.264;11.436;2022-10-12T18:49:56;96753.38;;;20.18;56.14
10476;BME280;26166;48.264;11.436;2022-10-12T18:52:56;96752.56;;;20.17;56.39